sensor_id;sensor_type;location;lat;lon;timestamp;temperature;humidity
33476;DHT22;19814;48.224;11.422;2023-08-08T00:01:53;12.60;99.90
33476;DHT22;19814;48.224;11.422;2023-08-08T00:04:18;12.70;99.90
33476;DHT22;19814;48.224;11.422;2023-08-08T00:06:44;12.70;99.90
33476;DHT22;19814;48.224;11.422;2023-08-08T00:09:09;12.70;99.90
33476;DHT22;19814;48.224;11.422;2023-08-08T00:11:35;12.80;99.90
33476;DHT22;19814;48.224;11.422;2023-08-08T00:14:01;12.80;99.90
33476;DHT22;19814;48.224;11.422;2023-08-08T00:16:26;12.80;99.90
33476;DHT22;19814;48.224;11.422;2023-08-08T00:18:52;12.80;99.90
33476;DHT22;19814;48.224;11.422;2023-08-08T00:21:19;12.90;99.90
33476;DHT22;19814;48.224;11.422;2023-08-08T00:23:45;12.90;99.90
33476;DHT22;19814;48.224;11.422;2023-08-08T00:26:11;12.90;99.90
33476;DHT22;19814;48.224;11.422;2023-08-08T00:28:36;12.90;99.90
33476;DHT22;19814;48.224;11.422;2023-08-08T00:31:02;12.90;99.90
33476;DHT22;19814;48.224;11.422;2023-08-08T00:33:27;13.00;99.90
33476;DHT22;19814;48.224;11.422;2023-08-08T00:35:53;12.90;99.90
33476;DHT22;19814;48.224;11.422;2023-08-08T00:38:19;12.90;99.90
33476;DHT22;19814;48.224;11.422;2023-08-08T00:40:44;13.00;99.90
33476;DHT22;19814;48.224;11.422;2023-08-08T00:43:10;13.00;99.90
33476;DHT22;19814;48.224;11.422;2023-08-08T00:45:36;13.00;99.90
33476;DHT22;19814;48.224;11.422;2023-08-08T00:48:02;13.00;99.90
33476;DHT22;19814;48.224;11.422;2023-08-08T00:50:27;13.10;99.90
33476;DHT22;19814;48.224;11.422;2023-08-08T00:52:53;13.10;99.90
33476;DHT22;19814;48.224;11.422;2023-08-08T00:55:19;13.10;99.90
33476;DHT22;19814;48.224;11.422;2023-08-08T00:57:45;13.10;99.90
33476;DHT22;19814;48.224;11.422;2023-08-08T01:00:11;13.10;99.90
33476;DHT22;19814;48.224;11.422;2023-08-08T01:02:37;13.10;99.90
33476;DHT22;19814;48.224;11.422;2023-08-08T01:05:04;13.00;99.90
33476;DHT22;19814;48.224;11.422;2023-08-08T01:10:25;13.00;99.90
33476;DHT22;19814;48.224;11.422;2023-08-08T01:12:54;13.00;99.90
33476;DHT22;19814;48.224;11.422;2023-08-08T01:15:21;13.00;99.90
33476;DHT22;19814;48.224;11.422;2023-08-08T01:17:48;13.00;99.90
33476;DHT22;19814;48.224;11.422;2023-08-08T01:20:14;13.00;99.90
33476;DHT22;19814;48.224;11.422;2023-08-08T01:25:21;12.90;99.90
33476;DHT22;19814;48.224;11.422;2023-08-08T01:27:46;12.80;99.90
33476;DHT22;19814;48.224;11.422;2023-08-08T01:30:12;12.90;99.90
33476;DHT22;19814;48.224;11.422;2023-08-08T01:32:38;12.80;99.90
33476;DHT22;19814;48.224;11.422;2023-08-08T01:35:03;12.80;99.90
33476;DHT22;19814;48.224;11.422;2023-08-08T01:37:34;12.80;99.90
33476;DHT22;19814;48.224;11.422;2023-08-08T01:40:01;12.70;99.90
33476;DHT22;19814;48.224;11.422;2023-08-08T01:42:28;12.70;99.90
33476;DHT22;19814;48.224;11.422;2023-08-08T01:44:55;12.70;99.90
33476;DHT22;19814;48.224;11.422;2023-08-08T01:47:21;12.60;99.90
33476;DHT22;19814;48.224;11.422;2023-08-08T01:49:47;12.60;99.90
33476;DHT22;19814;48.224;11.422;2023-08-08T01:52:12;12.60;99.90
33476;DHT22;19814;48.224;11.422;2023-08-08T01:54:38;12.60;99.90
33476;DHT22;19814;48.224;11.422;2023-08-08T01:57:04;12.50;99.90
33476;DHT22;19814;48.224;11.422;2023-08-08T01:59:29;12.50;99.90
33476;DHT22;19814;48.224;11.422;2023-08-08T02:01:55;12.40;99.90
33476;DHT22;19814;48.224;11.422;2023-08-08T02:04:20;12.40;99.90
33476;DHT22;19814;48.224;11.422;2023-08-08T02:06:46;12.30;99.90
33476;DHT22;19814;48.224;11.422;2023-08-08T02:09:12;12.20;99.90
33476;DHT22;19814;48.224;11.422;2023-08-08T02:11:40;12.20;99.90
33476;DHT22;19814;48.224;11.422;2023-08-08T02:14:05;12.20;99.90
33476;DHT22;19814;48.224;11.422;2023-08-08T02:16:31;12.20;99.90
33476;DHT22;19814;48.224;11.422;2023-08-08T02:18:56;12.10;99.90
33476;DHT22;19814;48.224;11.422;2023-08-08T02:21:22;12.00;99.90
33476;DHT22;19814;48.224;11.422;2023-08-08T02:23:48;12.00;99.90
33476;DHT22;19814;48.224;11.422;2023-08-08T02:26:13;12.00;99.90
33476;DHT22;19814;48.224;11.422;2023-08-08T02:28:39;12.00;99.90
33476;DHT22;19814;48.224;11.422;2023-08-08T02:31:04;12.00;99.90
33476;DHT22;19814;48.224;11.422;2023-08-08T02:33:30;12.00;99.90
33476;DHT22;19814;48.224;11.422;2023-08-08T02:35:55;12.00;99.90
33476;DHT22;19814;48.224;11.422;2023-08-08T02:38:21;12.00;99.90
33476;DHT22;19814;48.224;11.422;2023-08-08T02:40:47;12.00;99.90
33476;DHT22;19814;48.224;11.422;2023-08-08T02:43:12;12.00;99.90
33476;DHT22;19814;48.224;11.422;2023-08-08T02:45:38;11.90;99.90
33476;DHT22;19814;48.224;11.422;2023-08-08T02:48:04;11.90;99.90
33476;DHT22;19814;48.224;11.422;2023-08-08T02:50:30;11.90;99.90
33476;DHT22;19814;48.224;11.422;2023-08-08T02:52:56;11.80;99.90
33476;DHT22;19814;48.224;11.422;2023-08-08T02:55:21;11.80;99.90
33476;DHT22;19814;48.224;11.422;2023-08-08T02:57:47;11.80;99.90
33476;DHT22;19814;48.224;11.422;2023-08-08T03:00:13;11.80;99.90
33476;DHT22;19814;48.224;11.422;2023-08-08T03:02:38;11.80;99.90
33476;DHT22;19814;48.224;11.422;2023-08-08T03:05:04;11.80;99.90
33476;DHT22;19814;48.224;11.422;2023-08-08T03:07:30;11.80;99.90
33476;DHT22;19814;48.224;11.422;2023-08-08T03:09:55;11.80;99.90
33476;DHT22;19814;48.224;11.422;2023-08-08T03:12:21;11.90;99.90
33476;DHT22;19814;48.224;11.422;2023-08-08T03:14:46;11.90;99.90
33476;DHT22;19814;48.224;11.422;2023-08-08T03:17:12;11.90;99.90
33476;DHT22;19814;48.224;11.422;2023-08-08T03:19:37;11.90;99.90
33476;DHT22;19814;48.224;11.422;2023-08-08T03:22:03;11.90;99.90
33476;DHT22;19814;48.224;11.422;2023-08-08T03:24:29;11.90;99.90
33476;DHT22;19814;48.224;11.422;2023-08-08T03:26:54;11.90;99.90
33476;DHT22;19814;48.224;11.422;2023-08-08T03:29:20;11.90;99.90
33476;DHT22;19814;48.224;11.422;2023-08-08T03:31:46;11.90;99.90
33476;DHT22;19814;48.224;11.422;2023-08-08T03:34:11;11.90;99.90
33476;DHT22;19814;48.224;11.422;2023-08-08T03:36:37;11.90;99.90
33476;DHT22;19814;48.224;11.422;2023-08-08T03:39:03;11.90;99.90
33476;DHT22;19814;48.224;11.422;2023-08-08T03:41:29;11.90;99.90
33476;DHT22;19814;48.224;11.422;2023-08-08T03:43:55;11.90;99.90
33476;DHT22;19814;48.224;11.422;2023-08-08T03:46:21;11.90;99.90
33476;DHT22;19814;48.224;11.422;2023-08-08T03:48:47;11.90;99.90
33476;DHT22;19814;48.224;11.422;2023-08-08T03:51:12;12.00;99.90
33476;DHT22;19814;48.224;11.422;2023-08-08T03:53:38;12.00;99.90
33476;DHT22;19814;48.224;11.422;2023-08-08T03:56:03;12.00;99.90
33476;DHT22;19814;48.224;11.422;2023-08-08T03:58:29;12.00;99.90
33476;DHT22;19814;48.224;11.422;2023-08-08T04:00:54;12.00;99.90
33476;DHT22;19814;48.224;11.422;2023-08-08T04:03:20;12.00;99.90
33476;DHT22;19814;48.224;11.422;2023-08-08T04:05:46;12.00;99.90
33476;DHT22;19814;48.224;11.422;2023-08-08T04:08:15;12.00;99.90
33476;DHT22;19814;48.224;11.422;2023-08-08T04:10:41;12.10;99.90
33476;DHT22;19814;48.224;11.422;2023-08-08T04:13:07;12.10;99.90
33476;DHT22;19814;48.224;11.422;2023-08-08T04:15:32;12.10;99.90
33476;DHT22;19814;48.224;11.422;2023-08-08T04:17:58;12.10;99.90
33476;DHT22;19814;48.224;11.422;2023-08-08T04:20:23;12.10;99.90
33476;DHT22;19814;48.224;11.422;2023-08-08T04:22:49;12.10;99.90
33476;DHT22;19814;48.224;11.422;2023-08-08T04:25:15;12.10;99.90
33476;DHT22;19814;48.224;11.422;2023-08-08T04:27:40;12.00;99.90
33476;DHT22;19814;48.224;11.422;2023-08-08T04:30:08;12.00;99.90
33476;DHT22;19814;48.224;11.422;2023-08-08T04:32:34;12.00;99.90
33476;DHT22;19814;48.224;11.422;2023-08-08T04:34:59;12.00;99.90
33476;DHT22;19814;48.224;11.422;2023-08-08T04:37:25;12.00;99.90
33476;DHT22;19814;48.224;11.422;2023-08-08T04:39:50;12.10;99.90
33476;DHT22;19814;48.224;11.422;2023-08-08T04:42:16;12.10;99.90
33476;DHT22;19814;48.224;11.422;2023-08-08T04:44:41;12.20;99.90
33476;DHT22;19814;48.224;11.422;2023-08-08T04:47:07;12.20;99.90
33476;DHT22;19814;48.224;11.422;2023-08-08T04:49:32;12.20;99.90
33476;DHT22;19814;48.224;11.422;2023-08-08T04:51:58;12.30;99.90
33476;DHT22;19814;48.224;11.422;2023-08-08T04:54:23;12.40;99.90
33476;DHT22;19814;48.224;11.422;2023-08-08T04:56:49;12.40;99.90
33476;DHT22;19814;48.224;11.422;2023-08-08T04:59:14;12.40;99.90
33476;DHT22;19814;48.224;11.422;2023-08-08T05:01:40;12.50;99.90
33476;DHT22;19814;48.224;11.422;2023-08-08T05:04:06;12.60;99.90
33476;DHT22;19814;48.224;11.422;2023-08-08T05:06:31;12.60;99.90
33476;DHT22;19814;48.224;11.422;2023-08-08T05:08:57;12.70;99.90
33476;DHT22;19814;48.224;11.422;2023-08-08T05:11:23;12.70;99.90
33476;DHT22;19814;48.224;11.422;2023-08-08T05:13:48;12.70;99.90
33476;DHT22;19814;48.224;11.422;2023-08-08T05:16:14;12.80;99.90
33476;DHT22;19814;48.224;11.422;2023-08-08T05:18:40;12.90;99.90
33476;DHT22;19814;48.224;11.422;2023-08-08T05:21:06;12.90;99.90
33476;DHT22;19814;48.224;11.422;2023-08-08T05:23:31;12.90;99.90
33476;DHT22;19814;48.224;11.422;2023-08-08T05:25:57;13.00;99.90
33476;DHT22;19814;48.224;11.422;2023-08-08T05:28:23;13.00;99.90
33476;DHT22;19814;48.224;11.422;2023-08-08T05:30:48;13.00;99.90
33476;DHT22;19814;48.224;11.422;2023-08-08T05:33:14;13.10;99.90
33476;DHT22;19814;48.224;11.422;2023-08-08T05:35:39;13.10;99.90
33476;DHT22;19814;48.224;11.422;2023-08-08T05:38:05;13.20;99.90
33476;DHT22;19814;48.224;11.422;2023-08-08T05:40:30;13.40;99.90
33476;DHT22;19814;48.224;11.422;2023-08-08T05:42:55;13.50;99.90
33476;DHT22;19814;48.224;11.422;2023-08-08T05:45:21;13.60;99.90
33476;DHT22;19814;48.224;11.422;2023-08-08T05:47:46;13.70;99.90
33476;DHT22;19814;48.224;11.422;2023-08-08T05:50:22;13.80;99.90
33476;DHT22;19814;48.224;11.422;2023-08-08T05:52:48;13.90;99.90
33476;DHT22;19814;48.224;11.422;2023-08-08T05:55:13;13.90;99.90
33476;DHT22;19814;48.224;11.422;2023-08-08T05:57:39;14.00;99.90
33476;DHT22;19814;48.224;11.422;2023-08-08T06:00:05;14.10;99.90
33476;DHT22;19814;48.224;11.422;2023-08-08T06:02:33;14.20;99.90
33476;DHT22;19814;48.224;11.422;2023-08-08T06:04:59;14.30;99.90
33476;DHT22;19814;48.224;11.422;2023-08-08T06:07:24;14.40;99.90
33476;DHT22;19814;48.224;11.422;2023-08-08T06:09:50;14.40;99.90
33476;DHT22;19814;48.224;11.422;2023-08-08T06:12:15;14.60;99.90
33476;DHT22;19814;48.224;11.422;2023-08-08T06:14:41;14.70;99.90
33476;DHT22;19814;48.224;11.422;2023-08-08T06:17:07;14.90;99.90
33476;DHT22;19814;48.224;11.422;2023-08-08T06:19:32;15.00;99.90
33476;DHT22;19814;48.224;11.422;2023-08-08T06:21:58;15.10;99.90
33476;DHT22;19814;48.224;11.422;2023-08-08T06:24:23;15.30;99.90
33476;DHT22;19814;48.224;11.422;2023-08-08T06:26:49;15.40;99.90
33476;DHT22;19814;48.224;11.422;2023-08-08T06:29:14;15.60;99.90
33476;DHT22;19814;48.224;11.422;2023-08-08T06:31:40;15.60;99.90
33476;DHT22;19814;48.224;11.422;2023-08-08T06:34:06;15.70;99.90
33476;DHT22;19814;48.224;11.422;2023-08-08T06:36:32;15.90;99.90
33476;DHT22;19814;48.224;11.422;2023-08-08T06:38:57;16.00;99.90
33476;DHT22;19814;48.224;11.422;2023-08-08T06:41:22;15.90;98.80
33476;DHT22;19814;48.224;11.422;2023-08-08T06:43:48;15.90;99.90
33476;DHT22;19814;48.224;11.422;2023-08-08T06:46:14;15.90;99.90
33476;DHT22;19814;48.224;11.422;2023-08-08T06:48:42;16.00;99.90
33476;DHT22;19814;48.224;11.422;2023-08-08T06:51:07;16.10;99.90
33476;DHT22;19814;48.224;11.422;2023-08-08T06:53:33;16.20;99.90
33476;DHT22;19814;48.224;11.422;2023-08-08T06:55:58;16.30;99.90
33476;DHT22;19814;48.224;11.422;2023-08-08T06:58:24;16.40;99.30
33476;DHT22;19814;48.224;11.422;2023-08-08T07:00:50;16.50;99.90
33476;DHT22;19814;48.224;11.422;2023-08-08T07:03:16;16.70;99.90
33476;DHT22;19814;48.224;11.422;2023-08-08T07:05:41;16.90;99.80
33476;DHT22;19814;48.224;11.422;2023-08-08T07:08:07;17.00;99.50
33476;DHT22;19814;48.224;11.422;2023-08-08T07:10:34;17.30;99.90
33476;DHT22;19814;48.224;11.422;2023-08-08T07:13:00;17.50;98.50
33476;DHT22;19814;48.224;11.422;2023-08-08T07:15:26;17.70;99.50
33476;DHT22;19814;48.224;11.422;2023-08-08T07:17:53;17.80;98.30
33476;DHT22;19814;48.224;11.422;2023-08-08T07:20:19;17.60;97.40
33476;DHT22;19814;48.224;11.422;2023-08-08T07:22:44;17.30;96.70
33476;DHT22;19814;48.224;11.422;2023-08-08T07:25:10;17.30;98.70
33476;DHT22;19814;48.224;11.422;2023-08-08T07:27:36;17.60;98.30
33476;DHT22;19814;48.224;11.422;2023-08-08T07:30:03;17.90;98.20
33476;DHT22;19814;48.224;11.422;2023-08-08T07:32:28;18.00;96.70
33476;DHT22;19814;48.224;11.422;2023-08-08T07:34:54;17.90;96.90
33476;DHT22;19814;48.224;11.422;2023-08-08T07:37:19;17.80;97.00
33476;DHT22;19814;48.224;11.422;2023-08-08T07:39:45;18.00;97.50
33476;DHT22;19814;48.224;11.422;2023-08-08T07:42:10;17.90;96.50
33476;DHT22;19814;48.224;11.422;2023-08-08T07:44:36;18.00;96.60
33476;DHT22;19814;48.224;11.422;2023-08-08T07:47:03;18.20;97.20
33476;DHT22;19814;48.224;11.422;2023-08-08T07:49:29;18.50;95.90
33476;DHT22;19814;48.224;11.422;2023-08-08T07:51:55;18.90;95.80
33476;DHT22;19814;48.224;11.422;2023-08-08T07:54:20;19.10;95.80
33476;DHT22;19814;48.224;11.422;2023-08-08T07:56:46;19.40;95.10
33476;DHT22;19814;48.224;11.422;2023-08-08T07:59:11;19.40;93.60
33476;DHT22;19814;48.224;11.422;2023-08-08T08:01:37;19.50;94.80
33476;DHT22;19814;48.224;11.422;2023-08-08T08:04:02;19.70;93.60
33476;DHT22;19814;48.224;11.422;2023-08-08T08:06:28;19.80;95.30
33476;DHT22;19814;48.224;11.422;2023-08-08T08:08:53;19.70;92.40
33476;DHT22;19814;48.224;11.422;2023-08-08T08:11:19;19.20;93.40
33476;DHT22;19814;48.224;11.422;2023-08-08T08:13:45;19.20;94.70
33476;DHT22;19814;48.224;11.422;2023-08-08T08:16:10;19.30;93.10
33476;DHT22;19814;48.224;11.422;2023-08-08T08:18:36;19.20;93.70
33476;DHT22;19814;48.224;11.422;2023-08-08T08:21:01;19.50;94.00
33476;DHT22;19814;48.224;11.422;2023-08-08T08:23:27;19.60;93.10
33476;DHT22;19814;48.224;11.422;2023-08-08T08:25:52;19.90;94.30
33476;DHT22;19814;48.224;11.422;2023-08-08T08:28:18;20.10;92.00
33476;DHT22;19814;48.224;11.422;2023-08-08T08:30:44;19.80;92.50
33476;DHT22;19814;48.224;11.422;2023-08-08T08:33:09;19.90;93.80
33476;DHT22;19814;48.224;11.422;2023-08-08T08:35:35;20.00;92.90
33476;DHT22;19814;48.224;11.422;2023-08-08T08:38:01;20.30;91.60
33476;DHT22;19814;48.224;11.422;2023-08-08T08:40:28;20.50;93.30
33476;DHT22;19814;48.224;11.422;2023-08-08T08:42:54;20.90;91.60
33476;DHT22;19814;48.224;11.422;2023-08-08T08:45:20;21.10;92.40
33476;DHT22;19814;48.224;11.422;2023-08-08T08:47:47;21.30;90.30
33476;DHT22;19814;48.224;11.422;2023-08-08T08:50:15;21.30;90.80
33476;DHT22;19814;48.224;11.422;2023-08-08T08:52:42;20.90;91.10
33476;DHT22;19814;48.224;11.422;2023-08-08T08:55:08;20.90;92.00
33476;DHT22;19814;48.224;11.422;2023-08-08T08:57:34;21.30;91.50
33476;DHT22;19814;48.224;11.422;2023-08-08T09:00:01;21.50;91.20
33476;DHT22;19814;48.224;11.422;2023-08-08T09:02:26;21.80;91.60
33476;DHT22;19814;48.224;11.422;2023-08-08T09:04:52;22.20;92.40
33476;DHT22;19814;48.224;11.422;2023-08-08T09:07:20;22.30;90.60
33476;DHT22;19814;48.224;11.422;2023-08-08T09:09:48;22.10;90.80
33476;DHT22;19814;48.224;11.422;2023-08-08T09:12:13;22.10;90.70
33476;DHT22;19814;48.224;11.422;2023-08-08T09:14:41;22.30;92.30
33476;DHT22;19814;48.224;11.422;2023-08-08T09:17:11;22.10;88.30
33476;DHT22;19814;48.224;11.422;2023-08-08T09:19:38;22.00;90.90
33476;DHT22;19814;48.224;11.422;2023-08-08T09:22:04;22.20;88.30
33476;DHT22;19814;48.224;11.422;2023-08-08T09:24:30;22.40;88.30
33476;DHT22;19814;48.224;11.422;2023-08-08T09:26:55;22.20;88.00
33476;DHT22;19814;48.224;11.422;2023-08-08T09:29:21;21.70;86.30
33476;DHT22;19814;48.224;11.422;2023-08-08T09:31:46;21.20;87.50
33476;DHT22;19814;48.224;11.422;2023-08-08T09:34:13;20.90;88.50
33476;DHT22;19814;48.224;11.422;2023-08-08T09:36:38;20.70;90.90
33476;DHT22;19814;48.224;11.422;2023-08-08T09:39:05;20.90;90.10
33476;DHT22;19814;48.224;11.422;2023-08-08T09:41:31;20.90;87.90
33476;DHT22;19814;48.224;11.422;2023-08-08T09:43:58;20.80;88.00
33476;DHT22;19814;48.224;11.422;2023-08-08T09:46:24;20.60;89.30
33476;DHT22;19814;48.224;11.422;2023-08-08T09:48:50;20.90;88.60
33476;DHT22;19814;48.224;11.422;2023-08-08T09:51:16;21.40;88.30
33476;DHT22;19814;48.224;11.422;2023-08-08T09:53:42;22.00;87.20
33476;DHT22;19814;48.224;11.422;2023-08-08T09:56:07;22.30;85.70
33476;DHT22;19814;48.224;11.422;2023-08-08T09:58:33;22.20;84.00
33476;DHT22;19814;48.224;11.422;2023-08-08T10:00:59;21.90;82.30
33476;DHT22;19814;48.224;11.422;2023-08-08T10:03:25;21.70;82.00
33476;DHT22;19814;48.224;11.422;2023-08-08T10:05:52;21.70;83.50
33476;DHT22;19814;48.224;11.422;2023-08-08T10:08:18;21.50;82.60
33476;DHT22;19814;48.224;11.422;2023-08-08T10:10:46;21.40;83.20
33476;DHT22;19814;48.224;11.422;2023-08-08T10:13:22;21.20;82.30
33476;DHT22;19814;48.224;11.422;2023-08-08T10:15:49;21.60;83.30
33476;DHT22;19814;48.224;11.422;2023-08-08T10:18:15;21.80;83.30
33476;DHT22;19814;48.224;11.422;2023-08-08T10:20:47;21.90;83.40
33476;DHT22;19814;48.224;11.422;2023-08-08T10:23:15;22.10;82.00
33476;DHT22;19814;48.224;11.422;2023-08-08T10:25:47;22.00;81.90
33476;DHT22;19814;48.224;11.422;2023-08-08T10:28:19;22.20;81.40
33476;DHT22;19814;48.224;11.422;2023-08-08T10:33:40;22.50;82.30
33476;DHT22;19814;48.224;11.422;2023-08-08T10:36:07;22.60;80.20
33476;DHT22;19814;48.224;11.422;2023-08-08T10:39:02;22.30;79.50
33476;DHT22;19814;48.224;11.422;2023-08-08T10:41:29;22.00;79.80
33476;DHT22;19814;48.224;11.422;2023-08-08T10:43:56;22.00;78.70
33476;DHT22;19814;48.224;11.422;2023-08-08T10:46:23;22.00;82.20
33476;DHT22;19814;48.224;11.422;2023-08-08T10:48:57;22.00;79.70
33476;DHT22;19814;48.224;11.422;2023-08-08T10:54:06;21.80;81.10
33476;DHT22;19814;48.224;11.422;2023-08-08T10:56:34;22.10;79.20
33476;DHT22;19814;48.224;11.422;2023-08-08T10:59:00;22.30;79.50
33476;DHT22;19814;48.224;11.422;2023-08-08T11:01:37;22.40;79.10
33476;DHT22;19814;48.224;11.422;2023-08-08T11:04:04;22.30;77.20
33476;DHT22;19814;48.224;11.422;2023-08-08T11:06:32;22.20;76.80
33476;DHT22;19814;48.224;11.422;2023-08-08T11:08:58;21.90;76.40
33476;DHT22;19814;48.224;11.422;2023-08-08T11:11:25;21.80;79.80
33476;DHT22;19814;48.224;11.422;2023-08-08T11:13:52;21.80;77.70
33476;DHT22;19814;48.224;11.422;2023-08-08T11:16:18;21.60;79.40
33476;DHT22;19814;48.224;11.422;2023-08-08T11:18:43;21.60;76.80
33476;DHT22;19814;48.224;11.422;2023-08-08T11:21:10;21.40;78.10
33476;DHT22;19814;48.224;11.422;2023-08-08T11:23:36;21.50;78.70
33476;DHT22;19814;48.224;11.422;2023-08-08T11:26:04;21.50;78.90
33476;DHT22;19814;48.224;11.422;2023-08-08T11:28:29;21.60;78.30
33476;DHT22;19814;48.224;11.422;2023-08-08T11:30:55;21.50;76.90
33476;DHT22;19814;48.224;11.422;2023-08-08T11:33:21;21.70;79.80
33476;DHT22;19814;48.224;11.422;2023-08-08T11:35:47;21.80;77.10
33476;DHT22;19814;48.224;11.422;2023-08-08T11:38:15;21.60;78.10
33476;DHT22;19814;48.224;11.422;2023-08-08T11:40:41;21.40;77.00
33476;DHT22;19814;48.224;11.422;2023-08-08T11:43:07;21.50;78.10
33476;DHT22;19814;48.224;11.422;2023-08-08T11:45:33;22.10;76.80
33476;DHT22;19814;48.224;11.422;2023-08-08T11:47:59;22.60;74.90
33476;DHT22;19814;48.224;11.422;2023-08-08T11:50:26;23.00;75.30
33476;DHT22;19814;48.224;11.422;2023-08-08T11:52:54;22.80;74.70
33476;DHT22;19814;48.224;11.422;2023-08-08T11:55:21;22.70;73.50
33476;DHT22;19814;48.224;11.422;2023-08-08T11:57:48;22.80;74.20
33476;DHT22;19814;48.224;11.422;2023-08-08T12:00:14;23.10;73.20
33476;DHT22;19814;48.224;11.422;2023-08-08T12:02:41;23.30;73.60
33476;DHT22;19814;48.224;11.422;2023-08-08T12:05:09;22.80;72.30
33476;DHT22;19814;48.224;11.422;2023-08-08T12:07:38;22.20;72.20
33476;DHT22;19814;48.224;11.422;2023-08-08T12:10:18;22.00;75.00
33476;DHT22;19814;48.224;11.422;2023-08-08T12:12:45;22.40;75.40
33476;DHT22;19814;48.224;11.422;2023-08-08T12:15:12;23.00;75.80
33476;DHT22;19814;48.224;11.422;2023-08-08T12:17:38;23.50;73.10
33476;DHT22;19814;48.224;11.422;2023-08-08T12:20:04;23.30;72.20
33476;DHT22;19814;48.224;11.422;2023-08-08T12:22:33;22.90;70.50
33476;DHT22;19814;48.224;11.422;2023-08-08T12:24:59;22.70;71.70
33476;DHT22;19814;48.224;11.422;2023-08-08T12:27:25;22.70;76.30
33476;DHT22;19814;48.224;11.422;2023-08-08T12:29:51;23.10;75.40
33476;DHT22;19814;48.224;11.422;2023-08-08T12:32:20;23.20;74.70
33476;DHT22;19814;48.224;11.422;2023-08-08T12:34:49;23.10;71.50
33476;DHT22;19814;48.224;11.422;2023-08-08T12:37:15;23.00;73.30
33476;DHT22;19814;48.224;11.422;2023-08-08T12:39:41;22.80;73.80
33476;DHT22;19814;48.224;11.422;2023-08-08T12:42:06;22.90;73.60
33476;DHT22;19814;48.224;11.422;2023-08-08T12:44:32;23.30;75.20
33476;DHT22;19814;48.224;11.422;2023-08-08T12:46:57;23.60;70.70
33476;DHT22;19814;48.224;11.422;2023-08-08T12:49:23;23.40;71.50
33476;DHT22;19814;48.224;11.422;2023-08-08T12:51:50;23.70;73.70
33476;DHT22;19814;48.224;11.422;2023-08-08T12:54:15;23.60;71.20
33476;DHT22;19814;48.224;11.422;2023-08-08T12:56:41;23.70;71.60
33476;DHT22;19814;48.224;11.422;2023-08-08T12:59:06;23.90;72.60
33476;DHT22;19814;48.224;11.422;2023-08-08T13:01:32;24.10;71.60
33476;DHT22;19814;48.224;11.422;2023-08-08T13:03:57;24.20;68.50
33476;DHT22;19814;48.224;11.422;2023-08-08T13:06:23;24.20;71.20
33476;DHT22;19814;48.224;11.422;2023-08-08T13:08:48;23.60;68.20
33476;DHT22;19814;48.224;11.422;2023-08-08T13:11:14;23.20;68.50
33476;DHT22;19814;48.224;11.422;2023-08-08T13:13:39;23.10;67.60
33476;DHT22;19814;48.224;11.422;2023-08-08T13:16:05;23.10;70.50
33476;DHT22;19814;48.224;11.422;2023-08-08T13:18:30;22.90;70.40
33476;DHT22;19814;48.224;11.422;2023-08-08T13:20:56;22.90;71.00
33476;DHT22;19814;48.224;11.422;2023-08-08T13:23:21;23.00;72.60
33476;DHT22;19814;48.224;11.422;2023-08-08T13:25:47;23.10;71.40
33476;DHT22;19814;48.224;11.422;2023-08-08T13:28:14;23.10;70.80
33476;DHT22;19814;48.224;11.422;2023-08-08T13:30:40;23.10;71.10
33476;DHT22;19814;48.224;11.422;2023-08-08T13:33:07;23.10;72.20
33476;DHT22;19814;48.224;11.422;2023-08-08T13:35:33;23.10;69.90
33476;DHT22;19814;48.224;11.422;2023-08-08T13:37:59;22.90;71.10
33476;DHT22;19814;48.224;11.422;2023-08-08T13:40:25;22.90;71.60
33476;DHT22;19814;48.224;11.422;2023-08-08T13:42:50;23.00;71.40
33476;DHT22;19814;48.224;11.422;2023-08-08T13:45:18;23.10;72.30
33476;DHT22;19814;48.224;11.422;2023-08-08T13:47:43;23.20;71.30
33476;DHT22;19814;48.224;11.422;2023-08-08T13:50:09;22.90;69.40
33476;DHT22;19814;48.224;11.422;2023-08-08T13:52:34;22.60;70.00
33476;DHT22;19814;48.224;11.422;2023-08-08T13:55:01;22.50;72.10
33476;DHT22;19814;48.224;11.422;2023-08-08T13:57:27;22.50;71.80
33476;DHT22;19814;48.224;11.422;2023-08-08T13:59:52;22.60;71.30
33476;DHT22;19814;48.224;11.422;2023-08-08T14:02:18;22.60;69.80
33476;DHT22;19814;48.224;11.422;2023-08-08T14:04:45;22.60;70.80
33476;DHT22;19814;48.224;11.422;2023-08-08T14:07:10;22.50;72.00
33476;DHT22;19814;48.224;11.422;2023-08-08T14:09:36;22.50;73.30
33476;DHT22;19814;48.224;11.422;2023-08-08T14:12:02;22.40;72.40
33476;DHT22;19814;48.224;11.422;2023-08-08T14:14:27;22.40;72.40
33476;DHT22;19814;48.224;11.422;2023-08-08T14:16:53;22.30;73.60
33476;DHT22;19814;48.224;11.422;2023-08-08T14:19:18;22.30;74.80
33476;DHT22;19814;48.224;11.422;2023-08-08T14:21:44;22.50;74.90
33476;DHT22;19814;48.224;11.422;2023-08-08T14:24:10;22.80;73.70
33476;DHT22;19814;48.224;11.422;2023-08-08T14:26:36;22.70;70.30
33476;DHT22;19814;48.224;11.422;2023-08-08T14:29:02;22.60;70.70
33476;DHT22;19814;48.224;11.422;2023-08-08T14:31:27;22.40;70.10
33476;DHT22;19814;48.224;11.422;2023-08-08T14:33:53;22.30;71.20
33476;DHT22;19814;48.224;11.422;2023-08-08T14:36:18;22.40;73.50
33476;DHT22;19814;48.224;11.422;2023-08-08T14:38:44;22.60;74.50
33476;DHT22;19814;48.224;11.422;2023-08-08T14:41:09;22.70;71.50
33476;DHT22;19814;48.224;11.422;2023-08-08T14:43:35;22.80;74.20
33476;DHT22;19814;48.224;11.422;2023-08-08T14:46:00;22.90;71.20
33476;DHT22;19814;48.224;11.422;2023-08-08T14:48:26;22.80;72.00
33476;DHT22;19814;48.224;11.422;2023-08-08T14:50:52;22.80;71.60
33476;DHT22;19814;48.224;11.422;2023-08-08T14:53:18;22.90;74.10
33476;DHT22;19814;48.224;11.422;2023-08-08T14:55:43;22.90;72.90
33476;DHT22;19814;48.224;11.422;2023-08-08T14:58:09;23.00;73.10
33476;DHT22;19814;48.224;11.422;2023-08-08T15:00:34;22.90;71.70
33476;DHT22;19814;48.224;11.422;2023-08-08T15:03:00;22.90;72.30
33476;DHT22;19814;48.224;11.422;2023-08-08T15:05:25;22.80;71.80
33476;DHT22;19814;48.224;11.422;2023-08-08T15:07:51;22.80;73.50
33476;DHT22;19814;48.224;11.422;2023-08-08T15:10:16;22.80;71.60
33476;DHT22;19814;48.224;11.422;2023-08-08T15:12:42;23.00;68.80
33476;DHT22;19814;48.224;11.422;2023-08-08T15:15:08;22.90;70.60
33476;DHT22;19814;48.224;11.422;2023-08-08T15:17:34;22.70;69.90
33476;DHT22;19814;48.224;11.422;2023-08-08T15:20:02;22.60;71.00